sensor_id;sensor_type;location;lat;lon;timestamp;P1;durP1;ratioP1;P2;durP2;ratioP2
71343;SDS011;59146;43.850;25.948;2023-02-08T00:01:24;73.75;;;38.95;;
71343;SDS011;59146;43.850;25.948;2023-02-08T00:03:50;73.07;;;38.47;;
71343;SDS011;59146;43.850;25.948;2023-02-08T00:06:16;72.40;;;37.53;;
71343;SDS011;59146;43.850;25.948;2023-02-08T00:08:42;71.68;;;39.22;;
71343;SDS011;59146;43.850;25.948;2023-02-08T00:11:09;75.25;;;39.25;;
71343;SDS011;59146;43.850;25.948;2023-02-08T00:13:34;68.43;;;36.85;;
71343;SDS011;59146;43.850;25.948;2023-02-08T00:16:01;75.18;;;40.05;;
71343;SDS011;59146;43.850;25.948;2023-02-08T00:18:27;70.88;;;38.83;;
71343;SDS011;59146;43.850;25.948;2023-02-08T00:20:52;73.35;;;38.13;;
71343;SDS011;59146;43.850;25.948;2023-02-08T00:23:19;75.82;;;37.90;;
71343;SDS011;59146;43.850;25.948;2023-02-08T00:25:45;72.05;;;38.83;;
71343;SDS011;59146;43.850;25.948;2023-02-08T00:28:11;71.60;;;38.28;;
71343;SDS011;59146;43.850;25.948;2023-02-08T00:30:38;76.15;;;39.30;;
71343;SDS011;59146;43.850;25.948;2023-02-08T00:33:04;71.78;;;40.20;;
71343;SDS011;59146;43.850;25.948;2023-02-08T00:35:29;77.50;;;41.28;;
71343;SDS011;59146;43.850;25.948;2023-02-08T00:37:55;80.20;;;40.95;;
71343;SDS011;59146;43.850;25.948;2023-02-08T00:40:21;80.60;;;41.75;;
71343;SDS011;59146;43.850;25.948;2023-02-08T00:42:47;81.45;;;43.50;;
71343;SDS011;59146;43.850;25.948;2023-02-08T00:45:12;83.30;;;44.63;;
71343;SDS011;59146;43.850;25.948;2023-02-08T00:47:38;80.60;;;43.17;;
71343;SDS011;59146;43.850;25.948;2023-02-08T00:50:03;78.85;;;42.28;;
71343;SDS011;59146;43.850;25.948;2023-02-08T00:52:29;73.70;;;40.33;;
71343;SDS011;59146;43.850;25.948;2023-02-08T00:54:55;81.78;;;41.85;;
71343;SDS011;59146;43.850;25.948;2023-02-08T00:57:20;82.22;;;42.95;;
71343;SDS011;59146;43.850;25.948;2023-02-08T00:59:46;86.15;;;45.67;;
71343;SDS011;59146;43.850;25.948;2023-02-08T01:02:11;78.45;;;42.08;;
71343;SDS011;59146;43.850;25.948;2023-02-08T01:04:37;80.15;;;43.08;;
71343;SDS011;59146;43.850;25.948;2023-02-08T01:07:03;85.47;;;45.15;;
71343;SDS011;59146;43.850;25.948;2023-02-08T01:09:29;81.32;;;43.78;;
71343;SDS011;59146;43.850;25.948;2023-02-08T01:11:55;81.57;;;43.15;;
71343;SDS011;59146;43.850;25.948;2023-02-08T01:14:21;84.07;;;43.63;;
71343;SDS011;59146;43.850;25.948;2023-02-08T01:16:46;75.75;;;42.33;;
71343;SDS011;59146;43.850;25.948;2023-02-08T01:19:12;85.07;;;43.47;;
71343;SDS011;59146;43.850;25.948;2023-02-08T01:21:38;87.78;;;47.30;;
71343;SDS011;59146;43.850;25.948;2023-02-08T01:24:05;84.25;;;42.13;;
71343;SDS011;59146;43.850;25.948;2023-02-08T01:26:31;85.32;;;44.35;;
71343;SDS011;59146;43.850;25.948;2023-02-08T01:28:57;85.63;;;45.05;;
71343;SDS011;59146;43.850;25.948;2023-02-08T01:31:25;88.43;;;44.90;;
71343;SDS011;59146;43.850;25.948;2023-02-08T01:33:56;81.07;;;45.50;;
71343;SDS011;59146;43.850;25.948;2023-02-08T01:36:22;84.80;;;44.60;;
71343;SDS011;59146;43.850;25.948;2023-02-08T01:38:49;80.97;;;43.85;;
71343;SDS011;59146;43.850;25.948;2023-02-08T01:41:16;85.00;;;43.75;;
71343;SDS011;59146;43.850;25.948;2023-02-08T01:46:42;80.63;;;41.35;;
71343;SDS011;59146;43.850;25.948;2023-02-08T01:49:10;85.30;;;44.45;;
71343;SDS011;59146;43.850;25.948;2023-02-08T01:51:51;80.13;;;42.15;;
71343;SDS011;59146;43.850;25.948;2023-02-08T01:54:23;81.05;;;41.75;;
71343;SDS011;59146;43.850;25.948;2023-02-08T01:56:51;81.78;;;43.13;;
71343;SDS011;59146;43.850;25.948;2023-02-08T01:59:19;73.97;;;39.97;;
71343;SDS011;59146;43.850;25.948;2023-02-08T02:01:50;72.22;;;40.28;;
71343;SDS011;59146;43.850;25.948;2023-02-08T02:04:18;77.55;;;41.10;;
71343;SDS011;59146;43.850;25.948;2023-02-08T02:06:48;75.30;;;40.47;;
71343;SDS011;59146;43.850;25.948;2023-02-08T02:09:22;71.22;;;39.67;;
71343;SDS011;59146;43.850;25.948;2023-02-08T02:11:52;70.88;;;37.38;;
71343;SDS011;59146;43.850;25.948;2023-02-08T02:14:19;54.97;;;29.00;;
71343;SDS011;59146;43.850;25.948;2023-02-08T02:16:46;40.80;;;23.48;;
71343;SDS011;59146;43.850;25.948;2023-02-08T02:19:14;50.20;;;26.05;;
71343;SDS011;59146;43.850;25.948;2023-02-08T02:38:28;42.38;;;22.10;;
71343;SDS011;59146;43.850;25.948;2023-02-08T02:46:23;34.92;;;19.42;;
71343;SDS011;59146;43.850;25.948;2023-02-08T02:52:07;30.15;;;15.10;;
71343;SDS011;59146;43.850;25.948;2023-02-08T02:54:48;23.98;;;12.85;;
71343;SDS011;59146;43.850;25.948;2023-02-08T02:57:16;23.67;;;12.68;;
71343;SDS011;59146;43.850;25.948;2023-02-08T02:59:46;22.63;;;9.98;;
71343;SDS011;59146;43.850;25.948;2023-02-08T03:02:12;23.42;;;14.10;;
71343;SDS011;59146;43.850;25.948;2023-02-08T03:17:27;23.85;;;11.55;;
71343;SDS011;59146;43.850;25.948;2023-02-08T03:20:02;20.48;;;10.63;;
71343;SDS011;59146;43.850;25.948;2023-02-08T03:22:42;21.30;;;11.05;;
71343;SDS011;59146;43.850;25.948;2023-02-08T03:31:40;24.30;;;11.57;;
71343;SDS011;59146;43.850;25.948;2023-02-08T03:34:10;25.30;;;12.45;;
71343;SDS011;59146;43.850;25.948;2023-02-08T03:36:46;23.98;;;12.27;;
71343;SDS011;59146;43.850;25.948;2023-02-08T03:39:21;18.33;;;10.38;;
71343;SDS011;59146;43.850;25.948;2023-02-08T03:41:51;23.08;;;13.07;;
71343;SDS011;59146;43.850;25.948;2023-02-08T03:44:45;21.80;;;12.95;;
71343;SDS011;59146;43.850;25.948;2023-02-08T03:47:30;21.23;;;12.30;;
71343;SDS011;59146;43.850;25.948;2023-02-08T03:50:00;24.27;;;13.05;;
71343;SDS011;59146;43.850;25.948;2023-02-08T03:52:30;23.42;;;13.02;;
71343;SDS011;59146;43.850;25.948;2023-02-08T03:55:00;29.05;;;13.52;;
71343;SDS011;59146;43.850;25.948;2023-02-08T03:57:34;22.17;;;12.27;;
71343;SDS011;59146;43.850;25.948;2023-02-08T04:00:21;28.38;;;13.65;;
71343;SDS011;59146;43.850;25.948;2023-02-08T04:02:54;22.75;;;12.07;;
71343;SDS011;59146;43.850;25.948;2023-02-08T04:05:26;21.15;;;10.80;;
71343;SDS011;59146;43.850;25.948;2023-02-08T04:07:53;21.95;;;11.23;;
71343;SDS011;59146;43.850;25.948;2023-02-08T04:10:18;19.25;;;9.27;;
71343;SDS011;59146;43.850;25.948;2023-02-08T04:12:44;16.67;;;8.48;;
71343;SDS011;59146;43.850;25.948;2023-02-08T04:15:13;20.38;;;9.82;;
71343;SDS011;59146;43.850;25.948;2023-02-08T04:17:39;15.88;;;9.27;;
71343;SDS011;59146;43.850;25.948;2023-02-08T04:20:04;17.73;;;9.40;;
71343;SDS011;59146;43.850;25.948;2023-02-08T04:22:30;18.17;;;9.65;;
71343;SDS011;59146;43.850;25.948;2023-02-08T04:24:56;17.77;;;9.45;;
71343;SDS011;59146;43.850;25.948;2023-02-08T04:27:21;22.23;;;11.30;;
71343;SDS011;59146;43.850;25.948;2023-02-08T04:29:46;20.75;;;10.05;;
71343;SDS011;59146;43.850;25.948;2023-02-08T04:32:12;22.48;;;10.98;;
71343;SDS011;59146;43.850;25.948;2023-02-08T04:34:38;22.90;;;11.75;;
71343;SDS011;59146;43.850;25.948;2023-02-08T04:37:04;21.35;;;10.55;;
71343;SDS011;59146;43.850;25.948;2023-02-08T04:39:30;21.55;;;10.38;;
71343;SDS011;59146;43.850;25.948;2023-02-08T04:41:55;20.13;;;10.70;;
71343;SDS011;59146;43.850;25.948;2023-02-08T04:44:21;19.13;;;10.23;;
71343;SDS011;59146;43.850;25.948;2023-02-08T04:46:46;19.85;;;8.73;;
71343;SDS011;59146;43.850;25.948;2023-02-08T04:49:12;19.25;;;10.95;;
71343;SDS011;59146;43.850;25.948;2023-02-08T04:51:37;21.25;;;8.73;;
71343;SDS011;59146;43.850;25.948;2023-02-08T04:54:03;19.90;;;10.15;;
71343;SDS011;59146;43.850;25.948;2023-02-08T04:56:28;25.90;;;11.25;;
71343;SDS011;59146;43.850;25.948;2023-02-08T04:58:53;22.00;;;10.93;;
71343;SDS011;59146;43.850;25.948;2023-02-08T05:01:19;19.55;;;10.73;;
71343;SDS011;59146;43.850;25.948;2023-02-08T05:03:44;20.55;;;10.80;;
71343;SDS011;59146;43.850;25.948;2023-02-08T05:06:10;16.55;;;8.15;;
71343;SDS011;59146;43.850;25.948;2023-02-08T05:08:35;20.63;;;9.25;;
71343;SDS011;59146;43.850;25.948;2023-02-08T05:11:01;17.35;;;8.18;;
71343;SDS011;59146;43.850;25.948;2023-02-08T05:13:26;24.25;;;10.60;;
71343;SDS011;59146;43.850;25.948;2023-02-08T05:15:52;18.98;;;8.93;;
71343;SDS011;59146;43.850;25.948;2023-02-08T05:18:17;19.80;;;11.48;;
71343;SDS011;59146;43.850;25.948;2023-02-08T05:20:43;21.88;;;10.77;;
71343;SDS011;59146;43.850;25.948;2023-02-08T05:23:09;20.40;;;10.75;;
71343;SDS011;59146;43.850;25.948;2023-02-08T05:25:36;17.55;;;8.68;;
71343;SDS011;59146;43.850;25.948;2023-02-08T05:28:02;22.67;;;10.07;;
71343;SDS011;59146;43.850;25.948;2023-02-08T05:30:27;23.58;;;11.18;;
71343;SDS011;59146;43.850;25.948;2023-02-08T05:32:53;17.90;;;8.95;;
71343;SDS011;59146;43.850;25.948;2023-02-08T05:35:18;17.08;;;8.77;;
71343;SDS011;59146;43.850;25.948;2023-02-08T05:37:43;21.77;;;10.43;;
71343;SDS011;59146;43.850;25.948;2023-02-08T05:40:09;19.73;;;8.25;;
71343;SDS011;59146;43.850;25.948;2023-02-08T05:42:37;19.75;;;8.77;;
71343;SDS011;59146;43.850;25.948;2023-02-08T05:45:02;27.40;;;11.80;;
71343;SDS011;59146;43.850;25.948;2023-02-08T05:47:28;24.90;;;12.38;;
71343;SDS011;59146;43.850;25.948;2023-02-08T05:49:53;21.63;;;11.35;;
71343;SDS011;59146;43.850;25.948;2023-02-08T05:52:19;18.77;;;9.00;;
71343;SDS011;59146;43.850;25.948;2023-02-08T05:54:44;24.75;;;11.85;;
71343;SDS011;59146;43.850;25.948;2023-02-08T05:57:09;16.85;;;8.25;;
71343;SDS011;59146;43.850;25.948;2023-02-08T05:59:35;26.15;;;11.98;;
71343;SDS011;59146;43.850;25.948;2023-02-08T06:02:00;22.73;;;11.70;;
71343;SDS011;59146;43.850;25.948;2023-02-08T06:04:26;23.70;;;12.00;;
71343;SDS011;59146;43.850;25.948;2023-02-08T06:06:51;22.55;;;11.80;;
71343;SDS011;59146;43.850;25.948;2023-02-08T06:09:16;26.65;;;12.18;;
71343;SDS011;59146;43.850;25.948;2023-02-08T06:11:42;31.83;;;13.88;;
71343;SDS011;59146;43.850;25.948;2023-02-08T06:14:08;37.58;;;14.85;;
71343;SDS011;59146;43.850;25.948;2023-02-08T06:16:33;29.52;;;13.85;;
71343;SDS011;59146;43.850;25.948;2023-02-08T06:18:59;30.67;;;14.20;;
71343;SDS011;59146;43.850;25.948;2023-02-08T06:21:24;25.48;;;13.32;;
71343;SDS011;59146;43.850;25.948;2023-02-08T06:23:50;30.35;;;14.98;;
71343;SDS011;59146;43.850;25.948;2023-02-08T06:26:15;25.67;;;12.88;;
71343;SDS011;59146;43.850;25.948;2023-02-08T06:28:40;25.63;;;12.50;;
71343;SDS011;59146;43.850;25.948;2023-02-08T06:31:06;29.63;;;12.55;;
71343;SDS011;59146;43.850;25.948;2023-02-08T06:33:31;30.48;;;13.48;;
71343;SDS011;59146;43.850;25.948;2023-02-08T06:35:57;27.27;;;13.40;;
71343;SDS011;59146;43.850;25.948;2023-02-08T06:38:22;30.02;;;14.52;;
71343;SDS011;59146;43.850;25.948;2023-02-08T06:40:48;17.35;;;8.77;;
71343;SDS011;59146;43.850;25.948;2023-02-08T06:43:14;30.38;;;11.77;;
71343;SDS011;59146;43.850;25.948;2023-02-08T06:45:42;22.83;;;12.07;;
71343;SDS011;59146;43.850;25.948;2023-02-08T06:48:08;28.10;;;12.35;;
71343;SDS011;59146;43.850;25.948;2023-02-08T06:50:34;25.08;;;11.90;;
71343;SDS011;59146;43.850;25.948;2023-02-08T06:53:01;26.00;;;12.35;;
71343;SDS011;59146;43.850;25.948;2023-02-08T06:55:27;24.40;;;12.48;;
71343;SDS011;59146;43.850;25.948;2023-02-08T06:57:53;25.52;;;12.27;;
71343;SDS011;59146;43.850;25.948;2023-02-08T07:00:18;27.58;;;12.55;;
71343;SDS011;59146;43.850;25.948;2023-02-08T07:02:44;20.90;;;10.15;;
71343;SDS011;59146;43.850;25.948;2023-02-08T07:05:11;20.48;;;9.70;;
71343;SDS011;59146;43.850;25.948;2023-02-08T07:07:37;20.60;;;10.15;;
71343;SDS011;59146;43.850;25.948;2023-02-08T07:10:03;22.17;;;10.65;;
71343;SDS011;59146;43.850;25.948;2023-02-08T07:12:31;23.55;;;11.55;;
71343;SDS011;59146;43.850;25.948;2023-02-08T07:14:57;18.30;;;8.80;;
71343;SDS011;59146;43.850;25.948;2023-02-08T07:17:23;25.88;;;11.57;;
71343;SDS011;59146;43.850;25.948;2023-02-08T07:19:48;21.17;;;9.85;;
71343;SDS011;59146;43.850;25.948;2023-02-08T07:22:14;18.25;;;9.13;;
71343;SDS011;59146;43.850;25.948;2023-02-08T07:24:40;22.30;;;11.10;;
71343;SDS011;59146;43.850;25.948;2023-02-08T07:27:06;19.20;;;10.18;;
71343;SDS011;59146;43.850;25.948;2023-02-08T07:29:33;16.67;;;9.23;;
71343;SDS011;59146;43.850;25.948;2023-02-08T07:31:59;21.75;;;9.95;;
71343;SDS011;59146;43.850;25.948;2023-02-08T07:34:30;22.05;;;10.57;;
71343;SDS011;59146;43.850;25.948;2023-02-08T07:36:57;21.00;;;11.30;;
71343;SDS011;59146;43.850;25.948;2023-02-08T07:39:22;20.80;;;10.95;;
71343;SDS011;59146;43.850;25.948;2023-02-08T07:41:48;19.13;;;10.02;;
71343;SDS011;59146;43.850;25.948;2023-02-08T07:44:14;20.30;;;9.73;;
71343;SDS011;59146;43.850;25.948;2023-02-08T07:46:39;23.98;;;11.02;;
71343;SDS011;59146;43.850;25.948;2023-02-08T07:49:05;25.85;;;9.80;;
71343;SDS011;59146;43.850;25.948;2023-02-08T07:51:30;20.67;;;10.68;;
71343;SDS011;59146;43.850;25.948;2023-02-08T07:53:56;17.15;;;8.50;;
71343;SDS011;59146;43.850;25.948;2023-02-08T07:56:21;20.08;;;10.02;;
71343;SDS011;59146;43.850;25.948;2023-02-08T07:58:47;18.92;;;10.13;;
71343;SDS011;59146;43.850;25.948;2023-02-08T08:01:12;25.83;;;11.60;;
71343;SDS011;59146;43.850;25.948;2023-02-08T08:03:37;21.83;;;11.23;;
71343;SDS011;59146;43.850;25.948;2023-02-08T08:06:03;19.83;;;9.20;;
71343;SDS011;59146;43.850;25.948;2023-02-08T08:08:28;21.27;;;10.82;;
71343;SDS011;59146;43.850;25.948;2023-02-08T08:10:54;15.85;;;7.47;;
71343;SDS011;59146;43.850;25.948;2023-02-08T08:13:21;21.75;;;9.40;;
71343;SDS011;59146;43.850;25.948;2023-02-08T08:15:47;19.20;;;10.15;;
71343;SDS011;59146;43.850;25.948;2023-02-08T08:18:12;14.32;;;7.22;;
71343;SDS011;59146;43.850;25.948;2023-02-08T08:20:38;14.45;;;7.35;;
71343;SDS011;59146;43.850;25.948;2023-02-08T08:23:04;14.73;;;7.75;;
71343;SDS011;59146;43.850;25.948;2023-02-08T08:25:29;19.17;;;9.77;;
71343;SDS011;59146;43.850;25.948;2023-02-08T08:27:55;19.08;;;8.40;;
71343;SDS011;59146;43.850;25.948;2023-02-08T08:30:20;12.38;;;6.95;;
71343;SDS011;59146;43.850;25.948;2023-02-08T08:32:46;19.10;;;9.05;;
71343;SDS011;59146;43.850;25.948;2023-02-08T08:35:12;22.30;;;10.15;;
71343;SDS011;59146;43.850;25.948;2023-02-08T08:37:37;19.58;;;10.18;;
71343;SDS011;59146;43.850;25.948;2023-02-08T08:40:03;19.60;;;9.48;;
71343;SDS011;59146;43.850;25.948;2023-02-08T08:42:31;19.30;;;10.18;;
71343;SDS011;59146;43.850;25.948;2023-02-08T08:44:57;21.02;;;9.68;;
71343;SDS011;59146;43.850;25.948;2023-02-08T08:47:22;21.67;;;9.88;;
71343;SDS011;59146;43.850;25.948;2023-02-08T08:49:49;16.70;;;8.45;;
71343;SDS011;59146;43.850;25.948;2023-02-08T08:52:15;18.42;;;8.73;;
71343;SDS011;59146;43.850;25.948;2023-02-08T08:54:41;18.08;;;9.27;;
71343;SDS011;59146;43.850;25.948;2023-02-08T08:57:06;14.48;;;7.15;;
71343;SDS011;59146;43.850;25.948;2023-02-08T08:59:32;18.23;;;10.23;;
71343;SDS011;59146;43.850;25.948;2023-02-08T09:01:58;17.80;;;6.78;;
71343;SDS011;59146;43.850;25.948;2023-02-08T09:04:24;16.67;;;8.02;;
71343;SDS011;59146;43.850;25.948;2023-02-08T09:06:50;15.40;;;8.75;;
71343;SDS011;59146;43.850;25.948;2023-02-08T09:09:17;14.68;;;7.80;;
71343;SDS011;59146;43.850;25.948;2023-02-08T09:11:43;17.73;;;8.70;;
71343;SDS011;59146;43.850;25.948;2023-02-08T09:14:09;18.90;;;10.95;;
71343;SDS011;59146;43.850;25.948;2023-02-08T09:16:34;20.05;;;9.65;;
71343;SDS011;59146;43.850;25.948;2023-02-08T09:19:03;19.42;;;8.75;;
71343;SDS011;59146;43.850;25.948;2023-02-08T09:21:30;15.93;;;8.18;;
71343;SDS011;59146;43.850;25.948;2023-02-08T09:23:55;24.65;;;10.18;;
71343;SDS011;59146;43.850;25.948;2023-02-08T09:26:21;16.98;;;7.53;;
71343;SDS011;59146;43.850;25.948;2023-02-08T09:28:47;20.65;;;9.88;;
71343;SDS011;59146;43.850;25.948;2023-02-08T09:36:22;26.35;;;11.23;;
71343;SDS011;59146;43.850;25.948;2023-02-08T09:38:52;19.15;;;10.30;;
71343;SDS011;59146;43.850;25.948;2023-02-08T09:44:59;19.90;;;10.43;;
71343;SDS011;59146;43.850;25.948;2023-02-08T09:47:20;23.02;;;11.35;;
71343;SDS011;59146;43.850;25.948;2023-02-08T09:52:19;24.02;;;11.27;;
71343;SDS011;59146;43.850;25.948;2023-02-08T09:54:51;25.88;;;12.77;;
71343;SDS011;59146;43.850;25.948;2023-02-08T09:57:22;24.77;;;11.77;;
71343;SDS011;59146;43.850;25.948;2023-02-08T09:59:53;26.05;;;11.85;;
71343;SDS011;59146;43.850;25.948;2023-02-08T10:02:24;17.07;;;8.23;;
71343;SDS011;59146;43.850;25.948;2023-02-08T10:05:06;22.67;;;11.35;;
71343;SDS011;59146;43.850;25.948;2023-02-08T10:07:35;20.40;;;9.88;;
71343;SDS011;59146;43.850;25.948;2023-02-08T10:10:07;21.60;;;12.00;;
71343;SDS011;59146;43.850;25.948;2023-02-08T10:18:14;26.63;;;12.38;;
71343;SDS011;59146;43.850;25.948;2023-02-08T10:37:16;24.75;;;13.15;;
71343;SDS011;59146;43.850;25.948;2023-02-08T10:39:43;22.77;;;11.38;;
71343;SDS011;59146;43.850;25.948;2023-02-08T10:42:11;26.88;;;13.95;;
71343;SDS011;59146;43.850;25.948;2023-02-08T10:50:01;25.00;;;12.30;;
71343;SDS011;59146;43.850;25.948;2023-02-08T10:52:36;20.60;;;11.20;;
71343;SDS011;59146;43.850;25.948;2023-02-08T10:55:01;25.65;;;12.27;;
71343;SDS011;59146;43.850;25.948;2023-02-08T10:57:27;27.55;;;11.68;;
71343;SDS011;59146;43.850;25.948;2023-02-08T11:00:00;29.92;;;13.50;;
71343;SDS011;59146;43.850;25.948;2023-02-08T11:02:32;29.60;;;14.95;;
71343;SDS011;59146;43.850;25.948;2023-02-08T11:07:30;29.33;;;13.27;;
71343;SDS011;59146;43.850;25.948;2023-02-08T11:10:12;26.50;;;13.77;;
71343;SDS011;59146;43.850;25.948;2023-02-08T11:15:24;34.92;;;17.60;;
71343;SDS011;59146;43.850;25.948;2023-02-08T11:17:57;31.25;;;15.80;;
71343;SDS011;59146;43.850;25.948;2023-02-08T11:20:27;34.72;;;18.08;;
71343;SDS011;59146;43.850;25.948;2023-02-08T11:22:57;31.52;;;15.85;;
71343;SDS011;59146;43.850;25.948;2023-02-08T11:25:30;25.42;;;12.90;;
71343;SDS011;59146;43.850;25.948;2023-02-08T11:28:01;30.92;;;14.75;;
71343;SDS011;59146;43.850;25.948;2023-02-08T11:30:27;33.80;;;16.25;;
71343;SDS011;59146;43.850;25.948;2023-02-08T11:35:42;36.72;;;17.02;;
71343;SDS011;59146;43.850;25.948;2023-02-08T11:38:30;28.65;;;13.63;;
71343;SDS011;59146;43.850;25.948;2023-02-08T11:40:58;37.30;;;15.77;;
71343;SDS011;59146;43.850;25.948;2023-02-08T11:43:30;29.27;;;12.57;;
71343;SDS011;59146;43.850;25.948;2023-02-08T11:46:00;36.00;;;17.60;;
71343;SDS011;59146;43.850;25.948;2023-02-08T11:51:00;23.52;;;12.43;;
71343;SDS011;59146;43.850;25.948;2023-02-08T11:53:31;31.88;;;15.27;;
71343;SDS011;59146;43.850;25.948;2023-02-08T11:59:03;31.73;;;15.60;;
71343;SDS011;59146;43.850;25.948;2023-02-08T12:01:37;34.92;;;15.88;;
71343;SDS011;59146;43.850;25.948;2023-02-08T12:04:14;27.92;;;14.98;;
71343;SDS011;59146;43.850;25.948;2023-02-08T12:20:42;22.33;;;11.98;;
71343;SDS011;59146;43.850;25.948;2023-02-08T12:28:24;30.02;;;15.82;;
71343;SDS011;59146;43.850;25.948;2023-02-08T12:33:54;30.02;;;15.75;;
71343;SDS011;59146;43.850;25.948;2023-02-08T12:39:57;29.42;;;15.68;;
71343;SDS011;59146;43.850;25.948;2023-02-08T12:50:55;28.17;;;14.10;;
71343;SDS011;59146;43.850;25.948;2023-02-08T12:53:37;29.50;;;15.57;;
71343;SDS011;59146;43.850;25.948;2023-02-08T12:56:12;27.05;;;15.27;;
71343;SDS011;59146;43.850;25.948;2023-02-08T12:58:43;26.83;;;14.27;;
71343;SDS011;59146;43.850;25.948;2023-02-08T13:01:13;26.40;;;13.68;;
71343;SDS011;59146;43.850;25.948;2023-02-08T13:03:53;26.75;;;14.52;;
71343;SDS011;59146;43.850;25.948;2023-02-08T13:06:43;25.17;;;13.40;;
71343;SDS011;59146;43.850;25.948;2023-02-08T13:11:48;30.17;;;14.05;;
71343;SDS011;59146;43.850;25.948;2023-02-08T13:17:22;28.92;;;14.45;;
71343;SDS011;59146;43.850;25.948;2023-02-08T13:20:04;25.55;;;12.95;;
71343;SDS011;59146;43.850;25.948;2023-02-08T13:22:40;24.92;;;12.98;;
71343;SDS011;59146;43.850;25.948;2023-02-08T13:25:12;28.90;;;13.88;;
71343;SDS011;59146;43.850;25.948;2023-02-08T13:27:40;27.73;;;14.10;;
71343;SDS011;59146;43.850;25.948;2023-02-08T13:30:06;25.73;;;13.13;;
71343;SDS011;59146;43.850;25.948;2023-02-08T13:32:42;27.88;;;14.15;;
71343;SDS011;59146;43.850;25.948;2023-02-08T13:35:15;27.48;;;13.40;;
71343;SDS011;59146;43.850;25.948;2023-02-08T13:41:05;24.73;;;13.30;;
71343;SDS011;59146;43.850;25.948;2023-02-08T13:43:34;28.67;;;13.77;;
71343;SDS011;59146;43.850;25.948;2023-02-08T13:46:21;28.23;;;13.38;;
71343;SDS011;59146;43.850;25.948;2023-02-08T13:56:37;26.60;;;14.38;;
71343;SDS011;59146;43.850;25.948;2023-02-08T13:59:25;23.95;;;13.23;;
71343;SDS011;59146;43.850;25.948;2023-02-08T14:04:35;23.55;;;12.00;;
71343;SDS011;59146;43.850;25.948;2023-02-08T14:12:18;32.80;;;14.43;;
71343;SDS011;59146;43.850;25.948;2023-02-08T14:15:06;26.20;;;13.75;;
71343;SDS011;59146;43.850;25.948;2023-02-08T14:17:32;27.50;;;14.18;;
71343;SDS011;59146;43.850;25.948;2023-02-08T14:19:59;26.60;;;13.90;;
71343;SDS011;59146;43.850;25.948;2023-02-08T14:22:30;28.52;;;14.25;;
71343;SDS011;59146;43.850;25.948;2023-02-08T14:25:18;28.90;;;14.52;;
71343;SDS011;59146;43.850;25.948;2023-02-08T14:27:49;35.20;;;15.82;;
71343;SDS011;59146;43.850;25.948;2023-02-08T14:32:44;33.95;;;13.52;;
71343;SDS011;59146;43.850;25.948;2023-02-08T14:35:25;27.23;;;11.93;;
71343;SDS011;59146;43.850;25.948;2023-02-08T14:40:52;25.00;;;12.30;;
71343;SDS011;59146;43.850;25.948;2023-02-08T14:45:49;23.13;;;10.32;;
71343;SDS011;59146;43.850;25.948;2023-02-08T14:50:59;34.65;;;14.05;;
71343;SDS011;59146;43.850;25.948;2023-02-08T14:53:32;25.33;;;12.70;;
71343;SDS011;59146;43.850;25.948;2023-02-08T14:56:19;37.25;;;13.30;;
71343;SDS011;59146;43.850;25.948;2023-02-08T14:58:53;28.65;;;12.15;;
71343;SDS011;59146;43.850;25.948;2023-02-08T15:03:52;28.67;;;11.05;;
71343;SDS011;59146;43.850;25.948;2023-02-08T15:08:58;24.83;;;11.13;;
71343;SDS011;59146;43.850;25.948;2023-02-08T15:11:25;23.92;;;11.88;;
71343;SDS011;59146;43.850;25.948;2023-02-08T15:13:55;26.45;;;10.82;;
71343;SDS011;59146;43.850;25.948;2023-02-08T15:16:23;22.45;;;9.90;;
71343;SDS011;59146;43.850;25.948;2023-02-08T15:18:59;30.50;;;10.90;;
71343;SDS011;59146;43.850;25.948;2023-02-08T15:21:28;27.10;;;11.48;;
71343;SDS011;59146;43.850;25.948;2023-02-08T15:26:31;29.48;;;12.57;;
71343;SDS011;59146;43.850;25.948;2023-02-08T15:28:57;31.80;;;12.55;;
71343;SDS011;59146;43.850;25.948;2023-02-08T15:31:31;31.23;;;11.38;;
71343;SDS011;59146;43.850;25.948;2023-02-08T15:33:59;26.83;;;11.77;;
71343;SDS011;59146;43.850;25.948;2023-02-08T15:36:29;31.08;;;12.15;;
71343;SDS011;59146;43.850;25.948;2023-02-08T15:38:58;29.77;;;11.38;;
71343;SDS011;59146;43.850;25.948;2023-02-08T15:41:27;26.45;;;11.70;;
71343;SDS011;59146;43.850;25.948;2023-02-08T15:46:47;25.27;;;12.27;;
71343;SDS011;59146;43.850;25.948;2023-02-08T15:49:16;28.75;;;14.00;;
71343;SDS011;59146;43.850;25.948;2023-02-08T15:51:50;26.45;;;10.63;;
71343;SDS011;59146;43.850;25.948;2023-02-08T15:54:21;26.02;;;10.88;;
71343;SDS011;59146;43.850;25.948;2023-02-08T15:56:48;29.15;;;13.02;;
71343;SDS011;59146;43.850;25.948;2023-02-08T15:59:23;22.77;;;11.25;;
71343;SDS011;59146;43.850;25.948;2023-02-08T16:01:52;22.58;;;10.63;;
71343;SDS011;59146;43.850;25.948;2023-02-08T16:04:18;29.10;;;12.43;;
71343;SDS011;59146;43.850;25.948;2023-02-08T16:06:49;32.25;;;13.70;;
71343;SDS011;59146;43.850;25.948;2023-02-08T16:09:21;27.08;;;12.95;;
71343;SDS011;59146;43.850;25.948;2023-02-08T16:11:49;29.52;;;13.77;;
71343;SDS011;59146;43.850;25.948;2023-02-08T16:14:17;30.15;;;13.35;;
71343;SDS011;59146;43.850;25.948;2023-02-08T16:16:49;37.83;;;14.50;;
71343;SDS011;59146;43.850;25.948;2023-02-08T16:19:21;29.88;;;13.75;;
71343;SDS011;59146;43.850;25.948;2023-02-08T16:21:51;30.42;;;12.55;;
71343;SDS011;59146;43.850;25.948;2023-02-08T16:24:19;29.90;;;12.35;;
71343;SDS011;59146;43.850;25.948;2023-02-08T16:27:05;30.05;;;14.18;;
71343;SDS011;59146;43.850;25.948;2023-02-08T16:29:48;28.17;;;13.63;;
71343;SDS011;59146;43.850;25.948;2023-02-08T16:32:29;35.15;;;14.57;;
71343;SDS011;59146;43.850;25.948;2023-02-08T16:34:57;26.23;;;12.70;;
71343;SDS011;59146;43.850;25.948;2023-02-08T16:37:29;25.45;;;12.32;;
71343;SDS011;59146;43.850;25.948;2023-02-08T16:42:42;32.00;;;12.93;;
71343;SDS011;59146;43.850;25.948;2023-02-08T16:50:04;29.80;;;13.68;;
71343;SDS011;59146;43.850;25.948;2023-02-08T16:52:31;29.67;;;13.98;;
71343;SDS011;59146;43.850;25.948;2023-02-08T16:54:57;31.73;;;12.05;;
71343;SDS011;59146;43.850;25.948;2023-02-08T16:57:23;32.50;;;13.20;;
71343;SDS011;59146;43.850;25.948;2023-02-08T16:59:49;32.70;;;15.02;;
71343;SDS011;59146;43.850;25.948;2023-02-08T17:02:15;27.40;;;12.65;;
71343;SDS011;59146;43.850;25.948;2023-02-08T17:04:41;28.23;;;13.48;;
71343;SDS011;59146;43.850;25.948;2023-02-08T17:07:09;26.00;;;12.30;;
71343;SDS011;59146;43.850;25.948;2023-02-08T17:09:42;23.27;;;11.63;;
71343;SDS011;59146;43.850;25.948;2023-02-08T17:12:08;31.17;;;13.18;;
71343;SDS011;59146;43.850;25.948;2023-02-08T17:14:34;31.85;;;12.90;;
71343;SDS011;59146;43.850;25.948;2023-02-08T17:17:00;35.45;;;14.82;;
71343;SDS011;59146;43.850;25.948;2023-02-08T17:19:25;34.80;;;15.18;;
71343;SDS011;59146;43.850;25.948;2023-02-08T17:21:51;32.28;;;13.88;;
71343;SDS011;59146;43.850;25.948;2023-02-08T17:24:16;39.83;;;15.95;;
71343;SDS011;59146;43.850;25.948;2023-02-08T17:26:42;46.35;;;18.95;;